createdAt,value
2018-03-18T00:00:17.848Z,1.51
2018-03-18T00:02:46.915Z,1.58
2018-03-18T00:05:15.902Z,1.55
2018-03-18T00:07:47.013Z,1.52
2018-03-18T00:10:16.015Z,1.44
2018-03-18T00:12:45.187Z,1.49
2018-03-18T00:15:14.443Z,1.40
2018-03-18T00:17:43.494Z,1.46
2018-03-18T00:20:12.401Z,1.46
2018-03-18T00:22:41.815Z,1.45
2018-03-18T00:25:10.724Z,1.41
2018-03-18T00:27:41.468Z,1.39
2018-03-18T00:30:10.626Z,1.41
2018-03-18T00:32:39.580Z,1.39
2018-03-18T00:35:11.330Z,1.35
2018-03-18T00:37:40.846Z,1.38
2018-03-18T00:40:09.759Z,1.37
2018-03-18T00:42:39.228Z,1.39
2018-03-18T00:45:08.132Z,1.43
2018-03-18T00:47:38.303Z,1.40
2018-03-18T00:50:07.639Z,1.37
2018-03-18T00:52:36.548Z,1.35
2018-03-18T00:55:05.452Z,1.40
2018-03-18T00:57:34.757Z,1.36
2018-03-18T01:00:04.985Z,1.29
2018-03-18T01:02:33.875Z,1.24
2018-03-18T01:05:03.672Z,1.24
2018-03-18T01:07:32.537Z,1.29
2018-03-18T01:10:03.655Z,1.23
2018-03-18T01:12:33.678Z,1.23
2018-03-18T01:15:03.174Z,1.24
2018-03-18T01:17:32.507Z,1.19
2018-03-18T01:20:02.360Z,1.20
2018-03-18T01:22:31.212Z,1.18
2018-03-18T01:25:00.813Z,1.22
2018-03-18T01:27:30.142Z,1.16
2018-03-18T01:29:59.285Z,1.20
2018-03-18T01:32:28.613Z,1.26
2018-03-18T01:34:57.661Z,1.19
2018-03-18T01:37:27.720Z,1.23
2018-03-18T01:39:57.167Z,1.23
2018-03-18T01:42:26.218Z,1.20
2018-03-18T01:44:55.875Z,1.16
2018-03-18T01:47:27.439Z,1.21
2018-03-18T01:49:56.393Z,1.21
2018-03-18T01:52:25.290Z,1.22
2018-03-18T01:54:54.215Z,1.21
2018-03-18T01:57:23.062Z,1.17
2018-03-18T01:59:53.252Z,1.14
2018-03-18T02:02:22.135Z,1.07
2018-03-18T02:04:50.991Z,1.05
2018-03-18T02:07:20.189Z,1.06
2018-03-18T02:09:49.141Z,1.06
2018-03-18T02:12:18.102Z,1.11
2018-03-18T02:14:48.971Z,1.13
2018-03-18T02:17:19.586Z,1.12
2018-03-18T02:19:50.016Z,1.09
2018-03-18T02:22:20.029Z,1.08
2018-03-18T02:24:49.813Z,1.07
2018-03-18T02:27:19.146Z,1.02
2018-03-18T02:29:49.907Z,1.02
2018-03-18T02:32:18.914Z,1.07
2018-03-18T02:34:50.402Z,1.13
2018-03-18T02:37:22.472Z,1.11
2018-03-18T02:39:51.679Z,1.09
2018-03-18T02:42:22.064Z,0.93
2018-03-18T02:44:50.943Z,0.99
2018-03-18T02:47:19.786Z,0.96
2018-03-18T02:49:49.282Z,0.99
2018-03-18T02:52:21.516Z,1.07
2018-03-18T02:54:52.345Z,1.09
2018-03-18T02:57:21.897Z,1.07
2018-03-18T02:59:50.793Z,1.09
2018-03-18T03:02:19.849Z,1.10
2018-03-18T03:04:49.242Z,0.98
2018-03-18T03:07:18.169Z,1.02
2018-03-18T03:09:47.871Z,1.11
2018-03-18T03:12:16.743Z,1.08
2018-03-18T03:14:45.839Z,1.05
2018-03-18T03:17:15.182Z,1.05
2018-03-18T03:19:44.804Z,1.07
2018-03-18T03:22:13.730Z,1.00
2018-03-18T03:24:43.178Z,1.07
2018-03-18T03:27:12.236Z,1.01
2018-03-18T03:29:41.211Z,0.96
2018-03-18T03:32:10.439Z,1.03
2018-03-18T03:34:39.309Z,1.03
2018-03-18T03:37:08.242Z,1.04
2018-03-18T03:39:37.496Z,1.07
2018-03-18T03:42:06.475Z,1.10
2018-03-18T03:44:35.367Z,1.07
2018-03-18T03:47:04.353Z,1.06
2018-03-18T03:49:33.246Z,1.03
2018-03-18T03:52:03.455Z,0.97
2018-03-18T03:54:32.343Z,0.90
2018-03-18T03:57:01.245Z,1.02
2018-03-18T03:59:30.612Z,0.97
2018-03-18T04:01:59.632Z,1.01
2018-03-18T04:04:28.991Z,1.01
2018-03-18T04:06:58.263Z,1.03
2018-03-18T04:09:27.162Z,1.03
2018-03-18T04:11:56.015Z,1.02
2018-03-18T04:14:25.295Z,1.05
2018-03-18T04:16:54.180Z,1.02
2018-03-18T04:19:23.111Z,1.02
2018-03-18T04:21:52.412Z,0.99
2018-03-18T04:24:21.294Z,0.96
2018-03-18T04:26:50.174Z,0.92
2018-03-18T04:29:19.173Z,0.97
2018-03-18T04:31:47.954Z,0.98
2018-03-18T04:34:17.628Z,1.00
2018-03-18T04:36:46.727Z,0.97
2018-03-18T04:39:15.625Z,0.92
2018-03-18T04:41:44.852Z,0.93
2018-03-18T04:44:13.755Z,0.88
2018-03-18T04:46:42.691Z,0.92
2018-03-18T04:49:11.921Z,0.91
2018-03-18T04:51:40.826Z,0.91
2018-03-18T04:54:09.817Z,0.87
2018-03-18T04:56:39.114Z,0.88
2018-03-18T04:59:08.068Z,0.90
2018-03-18T05:01:37.117Z,0.93
2018-03-18T05:04:06.647Z,0.91
2018-03-18T05:06:35.562Z,0.95
2018-03-18T05:09:04.764Z,0.95
2018-03-18T05:11:33.667Z,0.98
2018-03-18T05:14:03.129Z,0.99
2018-03-18T05:16:32.525Z,0.94
2018-03-18T05:19:01.434Z,0.95
2018-03-18T05:21:30.276Z,0.95
2018-03-18T05:23:59.552Z,0.95
2018-03-18T05:26:28.424Z,0.96
2018-03-18T05:28:57.322Z,0.94
2018-03-18T05:31:26.587Z,0.95
2018-03-18T05:33:55.480Z,0.97
2018-03-18T05:36:24.360Z,1.00
2018-03-18T05:38:53.835Z,0.97
2018-03-18T05:41:22.751Z,1.02
2018-03-18T05:43:51.997Z,1.06
2018-03-18T05:46:21.375Z,1.08
2018-03-18T05:48:50.246Z,1.09
2018-03-18T05:51:19.114Z,1.09
2018-03-18T05:53:48.462Z,1.07
2018-03-18T05:56:17.379Z,0.96
2018-03-18T05:58:46.396Z,1.01
2018-03-18T06:02:18.313Z,1.08
2018-03-18T06:04:47.338Z,1.04
2018-03-18T06:07:17.477Z,0.89
2018-03-18T06:09:46.661Z,0.86
2018-03-18T06:12:15.654Z,0.86
2018-03-18T06:14:44.927Z,0.88
2018-03-18T06:17:14.314Z,0.90
2018-03-18T06:19:44.924Z,0.94
2018-03-18T06:22:15.302Z,0.91
2018-03-18T06:24:44.823Z,0.87
2018-03-18T06:27:14.493Z,0.84
2018-03-18T06:29:43.791Z,0.83
2018-03-18T06:32:13.154Z,0.94
2018-03-18T06:34:43.746Z,0.97
2018-03-18T06:37:12.701Z,0.94
2018-03-18T06:39:41.647Z,0.96
2018-03-18T06:42:11.019Z,0.91
2018-03-18T06:44:40.339Z,0.99
2018-03-18T06:47:09.681Z,0.99
2018-03-18T06:49:38.710Z,1.01
2018-03-18T06:52:07.703Z,1.00
2018-03-18T06:54:36.701Z,0.93
2018-03-18T06:57:05.727Z,0.97
2018-03-18T06:59:34.730Z,0.89
2018-03-18T07:02:05.141Z,0.80
2018-03-18T07:04:34.106Z,0.90
2018-03-18T07:07:03.659Z,0.87
2018-03-18T07:09:32.954Z,0.92
2018-03-18T07:12:03.801Z,0.89
2018-03-18T07:14:32.863Z,0.95
2018-03-18T07:17:03.148Z,0.94
2018-03-18T07:19:32.416Z,0.84
2018-03-18T07:22:01.859Z,0.83
2018-03-18T07:24:31.359Z,0.76
2018-03-18T07:27:00.406Z,0.76
2018-03-18T07:29:29.403Z,0.77
2018-03-18T07:31:58.568Z,0.78
2018-03-18T07:34:27.643Z,0.82
2018-03-18T07:36:57.037Z,0.75
2018-03-18T07:39:26.029Z,0.68
2018-03-18T07:41:54.999Z,0.68
2018-03-18T07:44:24.512Z,0.64
2018-03-18T07:46:53.825Z,0.70
2018-03-18T07:49:23.303Z,0.73
2018-03-18T07:51:53.265Z,0.70
2018-03-18T07:54:22.337Z,0.68
2018-03-18T07:56:51.292Z,0.72
2018-03-18T07:59:20.566Z,0.75
2018-03-18T08:01:49.769Z,0.64
2018-03-18T08:04:18.962Z,0.68
2018-03-18T08:06:48.491Z,0.72
2018-03-18T08:09:17.492Z,0.73
2018-03-18T08:11:46.757Z,0.76
2018-03-18T08:14:16.229Z,0.77
2018-03-18T08:16:45.273Z,0.86
2018-03-18T08:19:14.590Z,0.89
2018-03-18T08:21:43.497Z,0.92
2018-03-18T08:24:12.462Z,0.93
2018-03-18T08:26:42.022Z,1.00
2018-03-18T08:29:11.376Z,1.11
2018-03-18T08:31:40.496Z,1.11
2018-03-18T08:34:09.922Z,1.13
2018-03-18T08:36:39.116Z,1.14
2018-03-18T08:39:07.568Z,1.24
2018-03-18T08:41:37.887Z,1.23
2018-03-18T08:44:07.037Z,1.27
2018-03-18T08:46:36.129Z,1.34
2018-03-18T08:49:05.613Z,1.35
2018-03-18T08:51:34.580Z,1.41
2018-03-18T08:54:04.624Z,1.41
2018-03-18T08:56:33.502Z,1.42
2018-03-18T08:59:03.545Z,1.38
2018-03-18T09:01:33.909Z,1.48
2018-03-18T09:04:05.611Z,1.51
2018-03-18T09:06:34.851Z,1.51
2018-03-18T09:09:05.188Z,1.57
2018-03-18T09:11:34.135Z,1.59
2018-03-18T09:14:04.988Z,1.58
2018-03-18T09:16:34.386Z,1.57
2018-03-18T09:19:07.886Z,1.67
2018-03-18T09:21:37.064Z,1.72
2018-03-18T09:24:09.310Z,1.76
2018-03-18T09:26:38.678Z,1.79
2018-03-18T09:29:08.118Z,1.88
2018-03-18T09:31:37.665Z,1.88
2018-03-18T09:34:06.678Z,1.87
2018-03-18T09:36:35.896Z,1.95
2018-03-18T09:39:05.341Z,1.84
2018-03-18T09:41:34.336Z,1.88
2018-03-18T09:44:05.219Z,1.89
2018-03-18T09:46:34.204Z,1.89
2018-03-18T09:49:03.602Z,1.87
2018-03-18T09:51:34.140Z,1.96
2018-03-18T09:54:04.630Z,1.92
2018-03-18T09:56:33.882Z,1.96
2018-03-18T09:59:05.333Z,1.96
2018-03-18T10:01:34.608Z,2.02
2018-03-18T10:04:05.199Z,1.99
2018-03-18T10:06:34.491Z,2.09
2018-03-18T10:09:04.220Z,1.99
2018-03-18T10:11:33.343Z,2.00
2018-03-18T10:14:05.166Z,2.10
2018-03-18T10:16:34.247Z,2.10
2018-03-18T10:19:04.671Z,2.21
2018-03-18T10:21:33.732Z,2.10
2018-03-18T10:24:04.968Z,2.20
2018-03-18T10:26:34.440Z,2.10
2018-03-18T10:29:03.554Z,2.27
2018-03-18T10:31:32.736Z,2.33
2018-03-18T10:34:06.159Z,2.34
2018-03-18T10:36:35.347Z,2.31
2018-03-18T10:39:05.332Z,2.31
2018-03-18T10:41:34.604Z,2.26
2018-03-18T10:44:05.551Z,2.28
2018-03-18T10:46:34.493Z,2.38
2018-03-18T10:49:04.715Z,2.28
2018-03-18T10:51:33.710Z,2.19
2018-03-18T10:54:05.647Z,2.21
2018-03-18T10:56:34.593Z,2.29
2018-03-18T10:59:04.802Z,2.30
2018-03-18T11:01:38.883Z,2.08
2018-03-18T11:04:11.527Z,2.09
2018-03-18T11:06:41.111Z,2.01
2018-03-18T11:09:10.430Z,2.08
2018-03-18T11:11:39.584Z,2.12
2018-03-18T11:14:09.170Z,2.30
2018-03-18T11:16:38.098Z,2.36
2018-03-18T11:19:07.101Z,2.49
2018-03-18T11:21:37.233Z,2.46
2018-03-18T11:24:06.703Z,2.52
2018-03-18T11:26:35.697Z,2.69
2018-03-18T11:29:05.274Z,2.68
2018-03-18T11:31:34.367Z,2.76
2018-03-18T11:34:04.987Z,2.96
2018-03-18T11:36:34.464Z,3.02
2018-03-18T11:39:06.599Z,3.03
2018-03-18T11:41:36.016Z,3.32
2018-03-18T11:44:07.949Z,3.39
2018-03-18T11:46:37.303Z,3.30
2018-03-18T11:49:06.397Z,3.33
2018-03-18T11:51:37.083Z,3.21
2018-03-18T11:54:06.075Z,3.09
2018-03-18T11:56:35.007Z,3.04
2018-03-18T11:59:05.209Z,3.16
2018-03-18T12:01:34.290Z,3.28
2018-03-18T12:04:04.155Z,3.23
2018-03-18T12:06:34.540Z,3.37
2018-03-18T12:09:05.191Z,3.45
2018-03-18T12:11:34.126Z,3.38
2018-03-18T12:14:05.225Z,3.47
2018-03-18T12:16:34.545Z,3.56
2018-03-18T12:19:04.272Z,3.67
2018-03-18T12:21:33.269Z,3.82
2018-03-18T12:24:05.279Z,3.88
2018-03-18T12:26:34.919Z,3.73
2018-03-18T12:29:05.457Z,3.75
2018-03-18T12:31:34.431Z,3.82
2018-03-18T12:34:07.649Z,3.71
2018-03-18T12:36:36.783Z,3.79
2018-03-18T12:39:06.608Z,3.85
2018-03-18T12:41:36.701Z,3.99
2018-03-18T12:44:06.842Z,4.04
2018-03-18T12:46:43.367Z,3.98
2018-03-18T12:49:12.743Z,3.98
2018-03-18T12:51:42.337Z,3.94
2018-03-18T12:54:11.386Z,3.81
2018-03-18T12:56:42.035Z,3.48
2018-03-18T12:59:11.760Z,3.57
2018-03-18T13:01:40.858Z,3.71
2018-03-18T13:04:09.973Z,3.79
2018-03-18T13:06:40.514Z,3.83
2018-03-18T13:09:09.443Z,3.83
2018-03-18T13:11:38.619Z,4.00
2018-03-18T13:14:09.200Z,4.10
2018-03-18T13:16:38.092Z,4.11
2018-03-18T13:19:06.988Z,4.02
2018-03-18T13:21:40.847Z,4.04
2018-03-18T13:24:10.228Z,4.05
2018-03-18T13:26:39.183Z,3.99
2018-03-18T13:29:09.770Z,3.92
2018-03-18T13:31:38.749Z,3.96
2018-03-18T13:34:08.240Z,4.07
2018-03-18T13:36:37.742Z,4.14
2018-03-18T13:39:07.014Z,4.20
2018-03-18T13:41:36.052Z,4.19
2018-03-18T13:47:06.273Z,4.30
2018-03-18T13:49:36.032Z,4.17
2018-03-18T13:52:06.121Z,4.05
2018-03-18T13:54:35.317Z,4.03
2018-03-18T13:57:05.526Z,4.07
2018-03-18T13:59:34.723Z,4.04
2018-03-18T14:02:05.328Z,3.98
2018-03-18T14:04:35.966Z,3.89
2018-03-18T14:07:06.326Z,3.81
2018-03-18T14:09:35.281Z,3.92
2018-03-18T14:12:07.757Z,4.04
2018-03-18T14:14:36.703Z,4.15
2018-03-18T14:17:05.978Z,4.05
2018-03-18T14:19:35.347Z,3.94
2018-03-18T14:22:05.347Z,3.97
2018-03-18T14:24:34.348Z,4.03
2018-03-18T14:27:04.154Z,3.99
2018-03-18T14:29:33.044Z,4.08
2018-03-18T14:32:04.378Z,3.86
2018-03-18T14:34:34.290Z,3.94
2018-03-18T14:37:05.387Z,4.04
2018-03-18T14:39:34.965Z,4.00
2018-03-18T14:42:05.572Z,4.03
2018-03-18T14:44:35.738Z,3.99
2018-03-18T14:47:06.111Z,3.93
2018-03-18T14:49:35.068Z,3.78
2018-03-18T14:52:06.177Z,3.77
2018-03-18T14:54:35.892Z,3.81
2018-03-18T14:57:07.828Z,3.72
2018-03-18T14:59:38.074Z,3.82
2018-03-18T15:02:07.661Z,3.79
2018-03-18T15:04:37.006Z,3.84
2018-03-18T15:07:07.689Z,3.86
2018-03-18T15:09:37.169Z,3.86
2018-03-18T15:12:06.523Z,3.95
2018-03-18T15:14:35.817Z,4.00
2018-03-18T15:17:05.906Z,3.88
2018-03-18T15:19:35.206Z,3.84
2018-03-18T15:22:05.267Z,3.88
2018-03-18T15:24:34.257Z,3.86
2018-03-18T15:27:16.937Z,3.83
2018-03-18T15:29:46.575Z,3.82
2018-03-18T15:32:15.928Z,3.69
2018-03-18T15:34:45.023Z,3.75
2018-03-18T15:37:14.362Z,3.75
2018-03-18T15:39:43.292Z,3.70
2018-03-18T15:42:12.266Z,3.73
2018-03-18T15:44:41.438Z,3.64
2018-03-18T15:47:10.650Z,3.77
2018-03-18T15:49:41.044Z,3.70
2018-03-18T15:52:12.680Z,3.74
2018-03-18T15:54:41.708Z,3.78
2018-03-18T15:57:13.868Z,3.68
2018-03-18T15:59:43.050Z,3.70
2018-03-18T16:02:12.003Z,3.73
2018-03-18T16:04:41.457Z,3.78
2018-03-18T16:07:10.346Z,3.79
2018-03-18T16:09:39.692Z,3.82
2018-03-18T16:12:09.834Z,3.84
2018-03-18T16:14:38.803Z,3.76
2018-03-18T16:17:08.725Z,3.71
2018-03-18T16:19:38.953Z,3.72
2018-03-18T16:22:07.994Z,3.77
2018-03-18T16:24:37.166Z,3.81
2018-03-18T16:27:06.130Z,3.77
2018-03-18T16:31:44.957Z,3.70
2018-03-18T16:34:16.277Z,3.63
2018-03-18T16:36:45.274Z,3.60
2018-03-18T16:39:14.408Z,3.53
2018-03-18T16:41:43.372Z,3.53
2018-03-18T16:44:12.389Z,3.60
2018-03-18T16:46:41.732Z,3.64
2018-03-18T16:49:11.586Z,3.63
2018-03-18T16:51:41.595Z,3.57
2018-03-18T16:54:11.084Z,3.47
2018-03-18T16:56:40.031Z,3.49
2018-03-18T16:59:10.572Z,3.50
2018-03-18T17:01:39.944Z,3.51
2018-03-18T17:04:09.704Z,3.34
2018-03-18T17:06:38.889Z,3.36
2018-03-18T17:09:07.843Z,3.42
2018-03-18T17:11:36.899Z,3.38
2018-03-18T17:14:06.710Z,3.38
2018-03-18T17:16:35.620Z,3.36
2018-03-18T17:19:04.677Z,3.33
2018-03-18T17:21:34.017Z,3.37
2018-03-18T17:24:04.721Z,3.30
2018-03-18T17:26:33.650Z,3.24
2018-03-18T17:29:04.007Z,3.21
2018-03-18T17:31:33.078Z,3.20
2018-03-18T17:34:04.214Z,3.21
2018-03-18T17:36:33.584Z,3.15
2018-03-18T17:39:03.172Z,3.09
2018-03-18T17:41:32.316Z,3.09
2018-03-18T17:44:03.171Z,3.04
2018-03-18T17:48:45.915Z,3.12
2018-03-18T17:51:25.909Z,3.09
2018-03-18T17:56:07.142Z,3.09
2018-03-18T17:58:36.332Z,3.13
2018-03-18T18:01:05.624Z,3.06
2018-03-18T18:03:35.055Z,3.04
2018-03-18T18:06:05.581Z,3.05
2018-03-18T18:08:34.771Z,3.05
2018-03-18T18:11:04.963Z,2.95
2018-03-18T18:13:33.838Z,3.03
2018-03-18T18:16:03.314Z,2.98
2018-03-18T18:18:32.676Z,2.87
2018-03-18T18:21:01.845Z,2.88
2018-03-18T18:23:30.751Z,2.84
2018-03-18T18:26:00.118Z,2.77
2018-03-18T18:28:29.053Z,2.79
2018-03-18T18:30:57.957Z,2.84
2018-03-18T18:33:26.846Z,2.82
2018-03-18T18:35:55.792Z,2.85
2018-03-18T18:38:25.191Z,2.91
2018-03-18T18:40:54.214Z,2.87
2018-03-18T18:43:23.265Z,2.80
2018-03-18T18:45:52.517Z,2.74
2018-03-18T18:48:21.454Z,2.78
2018-03-18T18:50:50.471Z,2.80
2018-03-18T18:53:19.794Z,2.77
2018-03-18T18:55:48.900Z,2.71
2018-03-18T18:58:17.829Z,2.73
2018-03-18T19:00:47.022Z,2.78
2018-03-18T19:03:15.909Z,2.75
2018-03-18T19:05:44.809Z,2.71
2018-03-18T19:08:14.285Z,2.68
2018-03-18T19:10:43.277Z,2.73
2018-03-18T19:13:13.784Z,2.77
2018-03-18T19:15:42.813Z,2.68
2018-03-18T19:18:11.686Z,2.71
2018-03-18T19:20:41.500Z,2.67
2018-03-18T19:23:10.543Z,2.66
2018-03-18T19:25:39.841Z,2.68
2018-03-18T19:28:09.187Z,2.72
2018-03-18T19:30:38.193Z,2.68
2018-03-18T19:33:07.124Z,2.65
2018-03-18T19:35:38.093Z,2.68
2018-03-18T19:38:06.992Z,2.63
2018-03-18T19:40:36.191Z,2.65
2018-03-18T19:43:05.576Z,2.63
2018-03-18T19:45:34.444Z,2.60
2018-03-18T19:48:05.594Z,2.57
2018-03-18T19:50:35.021Z,2.50
2018-03-18T19:53:04.480Z,2.50
2018-03-18T19:55:34.821Z,2.45
2018-03-18T19:58:04.675Z,2.44
2018-03-18T20:00:33.631Z,2.40
2018-03-18T20:03:04.241Z,2.41
2018-03-18T20:05:33.243Z,2.29
2018-03-18T20:08:03.321Z,2.31
2018-03-18T20:10:32.846Z,2.25
2018-03-18T20:13:02.606Z,2.24
2018-03-18T20:15:31.558Z,2.26
2018-03-18T20:18:01.712Z,2.34
2018-03-18T20:20:30.789Z,2.34
2018-03-18T20:23:00.274Z,2.36
2018-03-18T20:25:30.467Z,2.31
2018-03-18T20:27:59.791Z,2.34
2018-03-18T20:30:28.731Z,2.29
2018-03-18T20:32:58.003Z,2.38
2018-03-18T20:35:26.885Z,2.42
2018-03-18T20:37:55.809Z,2.32
2018-03-18T20:40:25.085Z,2.35
2018-03-18T20:42:53.965Z,2.27
2018-03-18T20:45:23.220Z,2.20
2018-03-18T20:47:52.751Z,2.26
2018-03-18T20:50:21.622Z,2.24
2018-03-18T20:52:50.902Z,2.12
2018-03-18T20:55:19.815Z,2.14
2018-03-18T20:57:48.893Z,2.19
2018-03-18T21:00:18.220Z,2.13
2018-03-18T21:02:47.351Z,2.14
2018-03-18T21:05:16.270Z,2.09
2018-03-18T21:07:45.554Z,2.06
2018-03-18T21:10:14.640Z,2.02
2018-03-18T21:12:43.521Z,2.08
2018-03-18T21:15:13.836Z,2.07
2018-03-18T21:17:42.786Z,2.08
2018-03-18T21:20:11.724Z,2.02
2018-03-18T21:22:41.771Z,2.03
2018-03-18T21:25:10.861Z,2.06
2018-03-18T21:27:40.083Z,2.09
2018-03-18T21:30:09.242Z,2.09
2018-03-18T21:32:38.744Z,2.15
2018-03-18T21:35:08.022Z,2.10
2018-03-18T21:37:36.974Z,2.09
2018-03-18T21:40:06.593Z,1.98
2018-03-18T21:42:35.809Z,2.00
2018-03-18T21:45:06.949Z,2.03
2018-03-18T21:47:35.889Z,2.02
2018-03-18T21:50:06.710Z,1.99
2018-03-18T21:52:35.586Z,2.05
2018-03-18T21:55:05.299Z,2.07
2018-03-18T21:57:34.577Z,2.05
2018-03-18T22:00:04.484Z,1.93
2018-03-18T22:02:33.392Z,2.03
2018-03-18T22:05:03.274Z,2.03
2018-03-18T22:07:32.203Z,2.13
2018-03-18T22:10:02.364Z,2.15
2018-03-18T22:12:31.284Z,2.11
2018-03-18T22:15:00.235Z,2.11
2018-03-18T22:17:30.552Z,2.04
2018-03-18T22:19:59.492Z,2.05
2018-03-18T22:22:28.446Z,2.09
2018-03-18T22:24:59.542Z,2.02
2018-03-18T22:27:28.458Z,2.05
2018-03-18T22:29:57.729Z,2.10
2018-03-18T22:32:26.648Z,2.03
2018-03-18T22:34:55.531Z,2.00
2018-03-18T22:37:25.302Z,2.08
2018-03-18T22:39:54.788Z,2.10
2018-03-18T22:42:23.807Z,2.06
2018-03-18T22:44:52.748Z,2.05
2018-03-18T22:47:21.602Z,1.99
2018-03-18T22:49:50.597Z,2.06
2018-03-18T22:52:20.419Z,2.12
2018-03-18T22:54:49.371Z,2.14
2018-03-18T22:57:19.330Z,2.12
2018-03-18T22:59:48.834Z,2.11
2018-03-18T23:02:17.727Z,2.08
2018-03-18T23:04:46.675Z,2.13
2018-03-18T23:07:17.137Z,2.16
2018-03-18T23:09:46.111Z,2.07
2018-03-18T23:12:15.148Z,2.05
2018-03-18T23:14:44.091Z,2.02
2018-03-18T23:17:13.026Z,1.95
2018-03-18T23:19:42.372Z,2.01
2018-03-18T23:22:11.945Z,1.99
2018-03-18T23:24:40.954Z,1.98
2018-03-18T23:27:11.478Z,2.00
2018-03-18T23:29:40.366Z,1.94
2018-03-18T23:32:23.838Z,1.98
2018-03-18T23:34:53.380Z,1.94
2018-03-18T23:37:22.470Z,1.99
2018-03-18T23:39:51.705Z,1.98
2018-03-18T23:42:20.579Z,1.93
2018-03-18T23:44:49.761Z,2.02
2018-03-18T23:47:18.814Z,1.97
2018-03-18T23:49:48.304Z,2.01
2018-03-18T23:52:17.210Z,2.02
2018-03-18T23:54:46.098Z,2.04
2018-03-18T23:57:14.967Z,2.04
2018-03-18T23:59:43.879Z,2.09
